Time;durP1;ratioP1;P1;durP2;ratioP2;P2;SDS_P1;SDS_P2;PMS_P1;PMS_P2;Temp;Humidity;BMP_temperature;BMP_pressure;BME280_temperature;BME280_humidity;BME280_pressure;Samples;Min_cycle;Max_cycle;Signal;HPM_P1;HPM_P2
2021/08/26 00:00:14;;;;;;;10.82;4.63;;;;;;;;;;5027580;28;20104;-64
2021/08/26 00:08:07;;;;;;;9.27;5.20;;;;;;;;;;5021012;28;20101;-65
2021/08/26 00:10:33;;;;;;;9.55;5.00;;;;;;;;;;5019739;28;20104;-63
2021/08/26 00:12:59;;;;;;;9.52;5.32;;;;;;;;;;5024801;28;20481;-64
2021/08/26 00:15:24;;;;;;;10.88;5.45;;;;;;;;;;5023512;28;20021;-65
2021/08/26 00:17:49;;;;;;;11.40;5.35;;;;;;;;;;5027045;28;20071;-64
2021/08/26 00:20:15;;;;;;;8.95;4.85;;;;;;;;;;5023261;28;20392;-64
2021/08/26 00:22:40;;;;;;;9.75;5.35;;;;;;;;;;5020567;28;20029;-63
2021/08/26 00:25:05;;;;;;;12.73;5.38;;;;;;;;;;5025250;28;20028;-64
2021/08/26 00:27:31;;;;;;;9.88;5.25;;;;;;;;;;5021499;28;20037;-64
2021/08/26 00:29:56;;;;;;;12.55;5.68;;;;;;;;;;5019265;28;20021;-63
2021/08/26 00:32:21;;;;;;;8.68;4.97;;;;;;;;;;5018335;28;20464;-63
2021/08/26 00:34:46;;;;;;;10.07;5.43;;;;;;;;;;5026284;28;20029;-64
2021/08/26 00:37:11;;;;;;;10.80;6.03;;;;;;;;;;5019996;28;20029;-63
2021/08/26 00:39:36;;;;;;;8.88;5.15;;;;;;;;;;5026535;28;20128;-64
2021/08/26 00:42:02;;;;;;;10.75;5.53;;;;;;;;;;5023801;28;20025;-64
2021/08/26 00:44:28;;;;;;;10.18;5.93;;;;;;;;;;5022154;28;20026;-64
2021/08/26 00:46:53;;;;;;;9.40;5.60;;;;;;;;;;5027638;28;20120;-64
2021/08/26 00:49:18;;;;;;;10.35;5.57;;;;;;;;;;5025619;28;20033;-64
2021/08/26 00:51:44;;;;;;;10.38;6.18;;;;;;;;;;5025467;28;20397;-63
2021/08/26 00:54:10;;;;;;;12.45;6.10;;;;;;;;;;5024219;28;20042;-64
2021/08/26 00:56:35;;;;;;;10.95;5.82;;;;;;;;;;5020757;28;20021;-64
2021/08/26 00:59:01;;;;;;;10.23;6.00;;;;;;;;;;5022649;28;20115;-64
2021/08/26 01:01:29;;;;;;;12.30;5.97;;;;;;;;;;5014687;28;20029;-64
2021/08/26 01:04:18;;;;;;;9.45;5.72;;;;;;;;;;5022488;28;20037;-64
2021/08/26 01:06:51;;;;;;;10.05;6.28;;;;;;;;;;4999742;28;20041;-64
2021/08/26 01:09:19;;;;;;;11.32;6.35;;;;;;;;;;4996327;28;20041;-64
2021/08/26 01:11:46;;;;;;;10.95;6.18;;;;;;;;;;4989946;28;20041;-64
2021/08/26 01:14:11;;;;;;;11.82;6.45;;;;;;;;;;5003340;28;20056;-64
2021/08/26 01:16:40;;;;;;;10.68;6.68;;;;;;;;;;5005235;28;20489;-65
2021/08/26 01:19:05;;;;;;;11.15;6.25;;;;;;;;;;4999737;28;20076;-65
2021/08/26 01:21:31;;;;;;;9.88;5.78;;;;;;;;;;5004914;28;20385;-64
2021/08/26 01:24:00;;;;;;;13.10;6.35;;;;;;;;;;5006343;28;20037;-64
2021/08/26 01:26:31;;;;;;;10.53;6.30;;;;;;;;;;4991654;28;20846;-64
2021/08/26 01:28:57;;;;;;;10.10;6.15;;;;;;;;;;5007981;28;20291;-63
2021/08/26 01:31:22;;;;;;;10.02;6.13;;;;;;;;;;5008565;28;20046;-65
2021/08/26 01:33:48;;;;;;;8.98;5.95;;;;;;;;;;5001461;28;20038;-66
2021/08/26 01:36:14;;;;;;;11.00;6.55;;;;;;;;;;5006323;28;20084;-66
2021/08/26 01:38:39;;;;;;;12.10;7.03;;;;;;;;;;5002527;28;20040;-65
2021/08/26 01:41:04;;;;;;;10.57;6.57;;;;;;;;;;5005583;28;20026;-63
2021/08/26 01:43:32;;;;;;;11.88;6.45;;;;;;;;;;5011115;28;20038;-63
2021/08/26 01:45:58;;;;;;;12.18;6.32;;;;;;;;;;5027422;28;20618;-63
2021/08/26 01:48:23;;;;;;;12.48;7.15;;;;;;;;;;5029016;28;20037;-64
2021/08/26 01:50:49;;;;;;;11.02;7.00;;;;;;;;;;5029190;28;20393;-64
2021/08/26 01:53:14;;;;;;;10.82;6.80;;;;;;;;;;5020860;28;20091;-64
2021/08/26 01:55:39;;;;;;;10.27;6.38;;;;;;;;;;5029714;28;20075;-63
2021/08/26 01:58:04;;;;;;;10.25;6.10;;;;;;;;;;5024477;28;20021;-64
2021/08/26 02:00:30;;;;;;;12.80;6.55;;;;;;;;;;5024469;28;20048;-64
2021/08/26 02:02:55;;;;;;;11.15;6.28;;;;;;;;;;5029100;28;20032;-63
2021/08/26 02:05:20;;;;;;;15.70;6.47;;;;;;;;;;5028519;28;20021;-64
2021/08/26 02:07:49;;;;;;;10.88;6.45;;;;;;;;;;5024520;28;20393;-63
2021/08/26 02:10:14;;;;;;;10.27;6.03;;;;;;;;;;5022148;28;20022;-64
2021/08/26 02:12:40;;;;;;;10.90;6.22;;;;;;;;;;5029408;28;20562;-64
2021/08/26 02:15:05;;;;;;;10.00;6.22;;;;;;;;;;5030083;28;20504;-66
2021/08/26 02:17:30;;;;;;;9.63;5.68;;;;;;;;;;5026901;28;20025;-64
2021/08/26 02:19:55;;;;;;;9.68;6.00;;;;;;;;;;5026892;28;20017;-64
2021/08/26 02:22:21;;;;;;;11.43;6.47;;;;;;;;;;5026770;28;20030;-64
2021/08/26 02:24:46;;;;;;;13.45;7.00;;;;;;;;;;5028638;28;20287;-63
2021/08/26 02:27:11;;;;;;;10.98;6.43;;;;;;;;;;5025741;28;20028;-65
2021/08/26 02:29:36;;;;;;;9.73;5.97;;;;;;;;;;5019780;28;20041;-64
2021/08/26 02:32:01;;;;;;;9.77;6.18;;;;;;;;;;5021014;28;20551;-65
2021/08/26 02:34:27;;;;;;;11.18;6.10;;;;;;;;;;5020378;28;20036;-64
2021/08/26 02:36:52;;;;;;;12.07;6.47;;;;;;;;;;5025025;28;20044;-64
2021/08/26 02:39:17;;;;;;;12.40;6.25;;;;;;;;;;5026894;28;20294;-64
2021/08/26 02:41:42;;;;;;;12.52;6.47;;;;;;;;;;5028749;28;20020;-64
2021/08/26 02:44:07;;;;;;;9.60;6.18;;;;;;;;;;5024922;28;20077;-64
2021/08/26 02:46:32;;;;;;;9.48;5.93;;;;;;;;;;5030359;28;20468;-64
2021/08/26 02:48:58;;;;;;;12.02;6.68;;;;;;;;;;5027304;28;20022;-63
2021/08/26 02:51:23;;;;;;;9.82;5.93;;;;;;;;;;5027109;28;20045;-64
2021/08/26 02:53:48;;;;;;;10.98;6.65;;;;;;;;;;5027716;28;20112;-64
2021/08/26 02:56:13;;;;;;;10.60;6.27;;;;;;;;;;5029887;28;20071;-65
2021/08/26 02:58:38;;;;;;;12.70;6.93;;;;;;;;;;5023822;28;20374;-64
2021/08/26 03:01:04;;;;;;;9.77;6.23;;;;;;;;;;5028912;28;20021;-65
2021/08/26 03:03:29;;;;;;;8.60;5.35;;;;;;;;;;5026739;28;20276;-65
2021/08/26 03:05:54;;;;;;;9.98;5.85;;;;;;;;;;5029531;28;20223;-65
2021/08/26 03:08:19;;;;;;;11.60;6.07;;;;;;;;;;5025025;28;20029;-63
2021/08/26 03:10:44;;;;;;;10.15;5.90;;;;;;;;;;5027847;28;20272;-65
2021/08/26 03:13:09;;;;;;;8.88;5.45;;;;;;;;;;5022875;28;20033;-64
2021/08/26 03:15:35;;;;;;;10.20;6.25;;;;;;;;;;5023923;28;20022;-64
2021/08/26 03:18:00;;;;;;;12.57;6.90;;;;;;;;;;5019858;28;20025;-64
2021/08/26 03:20:25;;;;;;;9.57;5.82;;;;;;;;;;5035732;28;20025;-64
2021/08/26 03:22:51;;;;;;;12.85;5.85;;;;;;;;;;5024560;28;20029;-64
2021/08/26 03:25:16;;;;;;;10.45;6.30;;;;;;;;;;5027325;28;20032;-64
2021/08/26 03:27:41;;;;;;;9.65;5.57;;;;;;;;;;5029426;28;20036;-64
2021/08/26 03:30:07;;;;;;;13.18;5.97;;;;;;;;;;5023711;28;20049;-64
2021/08/26 03:32:33;;;;;;;10.07;6.18;;;;;;;;;;5020075;28;20017;-63
2021/08/26 03:34:58;;;;;;;10.82;5.85;;;;;;;;;;5025090;28;20029;-65
2021/08/26 03:37:23;;;;;;;11.50;6.10;;;;;;;;;;5028236;28;20025;-64
2021/08/26 03:39:49;;;;;;;11.07;6.90;;;;;;;;;;5019441;28;20017;-64
2021/08/26 03:42:14;;;;;;;10.90;6.20;;;;;;;;;;5024399;28;20056;-63
2021/08/26 03:44:39;;;;;;;9.40;6.00;;;;;;;;;;5023122;28;20291;-64
2021/08/26 03:47:04;;;;;;;11.23;6.20;;;;;;;;;;5028541;28;20021;-64
2021/08/26 03:49:29;;;;;;;9.00;5.82;;;;;;;;;;5023356;28;20022;-63
2021/08/26 03:51:55;;;;;;;9.48;5.55;;;;;;;;;;5029064;28;20469;-63
2021/08/26 03:54:20;;;;;;;9.65;6.22;;;;;;;;;;5026608;28;20116;-63
2021/08/26 03:56:45;;;;;;;11.70;5.82;;;;;;;;;;5023710;28;20507;-64
2021/08/26 03:59:11;;;;;;;8.82;5.53;;;;;;;;;;5028689;28;20075;-64
2021/08/26 04:01:37;;;;;;;10.35;5.57;;;;;;;;;;5025172;28;20154;-64
2021/08/26 04:04:03;;;;;;;10.50;5.88;;;;;;;;;;5019514;28;20026;-63
2021/08/26 04:06:28;;;;;;;9.90;5.53;;;;;;;;;;5018403;28;20041;-64
2021/08/26 04:08:54;;;;;;;10.77;5.93;;;;;;;;;;5027186;28;20087;-64
2021/08/26 04:11:19;;;;;;;10.20;6.15;;;;;;;;;;5022662;28;20021;-64
2021/08/26 04:13:44;;;;;;;8.73;5.35;;;;;;;;;;5021331;28;20374;-64
2021/08/26 04:16:09;;;;;;;10.77;6.35;;;;;;;;;;5023097;28;20025;-63
2021/08/26 04:18:34;;;;;;;9.25;5.70;;;;;;;;;;5025711;28;20018;-65
2021/08/26 04:20:59;;;;;;;10.07;5.70;;;;;;;;;;5023932;28;20025;-64
2021/08/26 04:23:25;;;;;;;9.73;5.47;;;;;;;;;;5026773;28;20372;-64
2021/08/26 04:25:50;;;;;;;9.17;5.27;;;;;;;;;;5025900;28;20025;-64
2021/08/26 04:28:15;;;;;;;9.07;5.63;;;;;;;;;;5023685;28;20775;-65
2021/08/26 04:30:40;;;;;;;11.60;6.25;;;;;;;;;;5019087;28;20022;-64
2021/08/26 04:33:05;;;;;;;8.73;6.10;;;;;;;;;;5021145;28;20041;-64
2021/08/26 04:35:31;;;;;;;10.15;6.20;;;;;;;;;;5025958;28;20268;-65
2021/08/26 04:37:56;;;;;;;10.73;5.65;;;;;;;;;;5025742;28;20299;-64
2021/08/26 04:40:21;;;;;;;10.45;5.95;;;;;;;;;;5026074;28;20025;-64
2021/08/26 04:42:46;;;;;;;9.13;5.15;;;;;;;;;;5023828;28;20056;-64
2021/08/26 04:45:11;;;;;;;9.43;5.68;;;;;;;;;;5026967;28;20036;-64
2021/08/26 04:47:37;;;;;;;9.77;5.40;;;;;;;;;;5027657;28;20073;-64
2021/08/26 04:50:03;;;;;;;9.23;5.65;;;;;;;;;;5030160;28;20033;-64
2021/08/26 04:52:28;;;;;;;11.82;6.10;;;;;;;;;;5028387;28;20034;-64
2021/08/26 04:54:53;;;;;;;9.65;5.38;;;;;;;;;;5028190;28;20022;-64
2021/08/26 04:57:18;;;;;;;9.98;5.95;;;;;;;;;;5028109;28;20292;-64
2021/08/26 04:59:43;;;;;;;9.48;5.63;;;;;;;;;;5032275;28;20029;-64
2021/08/26 05:02:08;;;;;;;10.67;6.27;;;;;;;;;;5029630;28;20095;-65
2021/08/26 05:04:34;;;;;;;10.75;5.65;;;;;;;;;;5023544;28;20642;-64
2021/08/26 05:06:59;;;;;;;9.73;5.82;;;;;;;;;;5030599;28;20044;-65
2021/08/26 05:09:24;;;;;;;10.40;5.85;;;;;;;;;;5032626;28;20484;-65
2021/08/26 05:11:53;;;;;;;12.05;6.13;;;;;;;;;;5031054;28;20024;-64
2021/08/26 05:14:18;;;;;;;9.30;5.85;;;;;;;;;;5031866;28;20401;-64
2021/08/26 05:16:44;;;;;;;8.45;5.22;;;;;;;;;;5032576;28;20021;-65
2021/08/26 05:19:09;;;;;;;9.20;5.72;;;;;;;;;;5023464;28;20284;-65
2021/08/26 05:21:34;;;;;;;11.75;6.03;;;;;;;;;;5031198;28;20025;-64
2021/08/26 05:23:59;;;;;;;8.73;5.47;;;;;;;;;;5031975;28;20248;-64
2021/08/26 05:26:24;;;;;;;9.88;5.70;;;;;;;;;;5031516;28;20032;-64
2021/08/26 05:28:49;;;;;;;11.25;5.93;;;;;;;;;;5031598;28;20453;-66
2021/08/26 05:31:16;;;;;;;12.48;6.70;;;;;;;;;;5027471;28;20513;-64
2021/08/26 05:33:41;;;;;;;9.88;6.00;;;;;;;;;;5029606;28;20033;-64
2021/08/26 05:36:06;;;;;;;13.40;6.03;;;;;;;;;;5030608;28;20571;-64
2021/08/26 05:38:31;;;;;;;11.38;5.68;;;;;;;;;;5027958;28;20375;-65
2021/08/26 05:40:56;;;;;;;12.48;5.75;;;;;;;;;;5031508;28;20527;-65
2021/08/26 05:43:21;;;;;;;8.73;5.78;;;;;;;;;;5030755;28;20035;-65
2021/08/26 05:45:47;;;;;;;9.48;6.03;;;;;;;;;;5025376;28;20448;-64
2021/08/26 05:48:12;;;;;;;11.35;6.25;;;;;;;;;;5030479;28;20105;-64
2021/08/26 05:50:37;;;;;;;9.53;6.17;;;;;;;;;;5029005;28;20049;-64
2021/08/26 05:53:02;;;;;;;10.13;6.07;;;;;;;;;;5028983;28;20795;-64
2021/08/26 05:55:27;;;;;;;10.82;5.95;;;;;;;;;;5029499;28;20052;-64
2021/08/26 05:57:52;;;;;;;11.63;6.32;;;;;;;;;;5030377;28;21530;-64
2021/08/26 06:00:18;;;;;;;16.90;6.53;;;;;;;;;;5031052;28;20052;-64
2021/08/26 06:02:43;;;;;;;11.02;6.05;;;;;;;;;;5031366;28;20628;-65
2021/08/26 06:05:09;;;;;;;11.13;6.53;;;;;;;;;;5031542;28;20042;-64
2021/08/26 06:07:34;;;;;;;9.32;5.78;;;;;;;;;;5030203;28;20113;-64
2021/08/26 06:09:59;;;;;;;13.13;6.15;;;;;;;;;;5030476;28;20121;-65
2021/08/26 06:12:24;;;;;;;11.35;6.93;;;;;;;;;;5031074;28;20017;-65
2021/08/26 06:14:50;;;;;;;11.05;6.57;;;;;;;;;;5031517;28;20021;-64
2021/08/26 06:17:15;;;;;;;10.95;6.07;;;;;;;;;;5026398;28;20061;-65
2021/08/26 06:19:40;;;;;;;12.70;6.17;;;;;;;;;;5024388;28;20109;-64
2021/08/26 06:22:05;;;;;;;12.00;6.20;;;;;;;;;;5036097;28;20284;-74
2021/08/26 06:24:30;;;;;;;13.57;7.15;;;;;;;;;;5022510;28;20288;-71
2021/08/26 06:26:58;;;;;;;10.13;6.70;;;;;;;;;;5026321;28;20025;-74
2021/08/26 06:29:24;;;;;;;11.63;6.93;;;;;;;;;;5024412;28;20468;-73
2021/08/26 06:31:49;;;;;;;12.95;6.28;;;;;;;;;;5031560;28;20025;-74
2021/08/26 06:34:14;;;;;;;10.13;6.32;;;;;;;;;;5027429;28;20112;-74
2021/08/26 06:36:39;;;;;;;10.32;6.03;;;;;;;;;;5031230;28;20013;-73
2021/08/26 06:39:04;;;;;;;11.70;6.53;;;;;;;;;;5031280;28;20268;-73
2021/08/26 06:41:29;;;;;;;11.67;7.13;;;;;;;;;;5030862;28;20252;-74
2021/08/26 06:43:54;;;;;;;13.48;6.65;;;;;;;;;;5030620;28;20280;-73
2021/08/26 06:46:20;;;;;;;11.68;6.47;;;;;;;;;;5030598;28;20022;-74
2021/08/26 06:48:45;;;;;;;9.73;6.28;;;;;;;;;;5030279;28;20091;-73
2021/08/26 06:51:10;;;;;;;10.55;5.95;;;;;;;;;;5027557;28;20073;-73
2021/08/26 06:53:35;;;;;;;10.68;6.55;;;;;;;;;;5028886;28;20037;-72
2021/08/26 06:56:00;;;;;;;11.20;6.03;;;;;;;;;;5026602;28;20022;-72
2021/08/26 06:58:26;;;;;;;9.70;5.53;;;;;;;;;;5029826;28;20025;-73
2021/08/26 07:00:51;;;;;;;9.32;5.72;;;;;;;;;;5027423;28;20029;-73
2021/08/26 07:03:16;;;;;;;13.30;6.40;;;;;;;;;;5022489;28;20032;-74
2021/08/26 07:05:41;;;;;;;10.90;6.60;;;;;;;;;;5028760;28;20021;-74
2021/08/26 07:08:06;;;;;;;11.23;6.60;;;;;;;;;;5024339;28;20684;-73
2021/08/26 07:10:32;;;;;;;15.50;7.10;;;;;;;;;;5030119;28;20017;-74
2021/08/26 07:12:57;;;;;;;11.25;5.57;;;;;;;;;;5027653;28;20559;-69
2021/08/26 07:15:25;;;;;;;10.95;5.93;;;;;;;;;;5029572;28;20534;-69
2021/08/26 07:17:50;;;;;;;10.38;6.85;;;;;;;;;;5020702;28;20080;-68
2021/08/26 07:20:15;;;;;;;10.70;6.28;;;;;;;;;;5028835;28;20021;-69
2021/08/26 07:22:40;;;;;;;11.23;6.65;;;;;;;;;;5030541;28;20100;-69
2021/08/26 07:25:06;;;;;;;9.38;5.30;;;;;;;;;;5029708;28;20677;-69
2021/08/26 07:27:31;;;;;;;12.38;6.20;;;;;;;;;;5030273;28;20014;-69
2021/08/26 07:29:56;;;;;;;8.98;5.70;;;;;;;;;;5029988;28;20064;-68
2021/08/26 07:32:21;;;;;;;12.13;7.03;;;;;;;;;;5029999;28;20097;-69
2021/08/26 07:34:46;;;;;;;10.30;6.85;;;;;;;;;;5029952;28;20032;-69
2021/08/26 07:37:12;;;;;;;12.65;7.10;;;;;;;;;;5029623;28;20109;-69
2021/08/26 07:39:37;;;;;;;11.80;7.20;;;;;;;;;;5029839;28;20054;-70
2021/08/26 07:42:02;;;;;;;12.32;7.10;;;;;;;;;;5029850;28;20311;-69
2021/08/26 07:44:27;;;;;;;12.48;6.97;;;;;;;;;;5029312;28;20021;-68
2021/08/26 07:46:52;;;;;;;15.20;7.20;;;;;;;;;;5029288;28;20072;-69
2021/08/26 07:49:17;;;;;;;12.88;7.70;;;;;;;;;;5028921;28;20695;-70
2021/08/26 07:51:43;;;;;;;13.18;7.82;;;;;;;;;;5029624;28;20456;-69
2021/08/26 07:54:08;;;;;;;17.25;8.55;;;;;;;;;;5028973;28;20094;-69
2021/08/26 07:56:35;;;;;;;16.05;8.07;;;;;;;;;;5029597;28;20029;-69
2021/08/26 07:59:00;;;;;;;16.38;10.02;;;;;;;;;;5022815;28;20033;-69
2021/08/26 08:01:25;;;;;;;15.67;9.30;;;;;;;;;;5029605;28;20198;-68
2021/08/26 08:03:50;;;;;;;21.55;10.45;;;;;;;;;;5029096;28;20675;-68
2021/08/26 08:06:18;;;;;;;15.75;9.43;;;;;;;;;;5029320;28;20430;-69
2021/08/26 08:08:43;;;;;;;17.15;11.50;;;;;;;;;;5029163;28;20694;-69
2021/08/26 08:11:08;;;;;;;19.03;11.10;;;;;;;;;;5029294;28;20064;-69
2021/08/26 08:13:33;;;;;;;15.50;8.90;;;;;;;;;;5029153;28;20307;-69
2021/08/26 08:16:00;;;;;;;17.98;9.85;;;;;;;;;;5028850;28;20275;-69
2021/08/26 08:18:26;;;;;;;17.10;10.13;;;;;;;;;;5028966;28;20056;-69
2021/08/26 08:20:51;;;;;;;19.23;9.97;;;;;;;;;;5029087;28;20137;-69
2021/08/26 08:23:16;;;;;;;18.05;11.48;;;;;;;;;;5029185;28;20256;-69
2021/08/26 08:25:41;;;;;;;17.85;10.55;;;;;;;;;;5028889;28;20373;-69
2021/08/26 08:28:13;;;;;;;17.63;10.35;;;;;;;;;;5029295;28;20029;-69
2021/08/26 08:30:38;;;;;;;23.98;11.93;;;;;;;;;;5029349;28;20035;-69
2021/08/26 08:33:03;;;;;;;19.60;11.00;;;;;;;;;;5030936;28;20037;-70
2021/08/26 08:35:29;;;;;;;19.77;11.02;;;;;;;;;;5032714;28;20373;-69
2021/08/26 08:37:54;;;;;;;19.20;10.53;;;;;;;;;;5033120;28;20069;-69
2021/08/26 08:40:19;;;;;;;16.57;9.90;;;;;;;;;;5033213;28;20740;-69
2021/08/26 08:42:44;;;;;;;19.85;11.25;;;;;;;;;;5032833;28;20346;-70
2021/08/26 08:45:10;;;;;;;20.50;10.85;;;;;;;;;;5033977;28;20482;-69
2021/08/26 08:47:36;;;;;;;17.67;10.50;;;;;;;;;;5034838;28;20021;-69
2021/08/26 08:50:02;;;;;;;19.17;10.75;;;;;;;;;;5032450;28;20076;-70
2021/08/26 08:52:28;;;;;;;19.42;11.52;;;;;;;;;;5032433;28;20033;-69
2021/08/26 08:54:53;;;;;;;19.25;10.68;;;;;;;;;;5032916;28;20152;-69
2021/08/26 08:57:20;;;;;;;19.52;11.00;;;;;;;;;;5032671;28;20108;-69
2021/08/26 08:59:45;;;;;;;21.75;10.95;;;;;;;;;;5032346;28;20075;-69
2021/08/26 09:02:10;;;;;;;21.47;11.63;;;;;;;;;;5032427;28;20021;-70
2021/08/26 09:04:52;;;;;;;21.60;11.75;;;;;;;;;;5032330;28;20721;-69
2021/08/26 09:07:24;;;;;;;22.83;12.63;;;;;;;;;;5032189;28;20021;-69
2021/08/26 09:09:51;;;;;;;21.80;12.18;;;;;;;;;;5032814;28;20020;-68
2021/08/26 09:12:16;;;;;;;24.00;14.50;;;;;;;;;;5032246;28;20037;-69
2021/08/26 09:14:42;;;;;;;22.48;14.18;;;;;;;;;;5032764;28;20083;-69
2021/08/26 09:17:16;;;;;;;23.88;15.07;;;;;;;;;;5032034;28;20372;-70
2021/08/26 09:19:43;;;;;;;27.17;14.07;;;;;;;;;;5026814;28;20041;-70
2021/08/26 09:22:08;;;;;;;29.48;18.40;;;;;;;;;;5031930;28;20025;-68
2021/08/26 09:24:47;;;;;;;26.52;16.40;;;;;;;;;;5032040;28;20101;-69
2021/08/26 09:27:35;;;;;;;27.93;16.17;;;;;;;;;;5032110;28;20108;-69
2021/08/26 09:30:14;;;;;;;33.42;19.90;;;;;;;;;;5030846;28;20520;-69
2021/08/26 09:32:44;;;;;;;27.00;16.70;;;;;;;;;;5032834;28;20017;-69
2021/08/26 09:35:09;;;;;;;25.75;15.02;;;;;;;;;;5032184;28;20017;-69
2021/08/26 09:37:39;;;;;;;26.57;16.83;;;;;;;;;;5031596;28;20799;-69
2021/08/26 09:40:05;;;;;;;28.00;16.98;;;;;;;;;;5030778;28;20615;-69
2021/08/26 09:42:30;;;;;;;26.15;15.23;;;;;;;;;;5031767;28;20096;-69
2021/08/26 09:45:12;;;;;;;25.88;16.38;;;;;;;;;;5031655;28;20104;-69
2021/08/26 09:47:56;;;;;;;29.48;16.83;;;;;;;;;;5031778;28;20033;-69
2021/08/26 09:50:40;;;;;;;26.50;15.25;;;;;;;;;;5035191;28;20064;-69
2021/08/26 09:53:05;;;;;;;23.60;14.75;;;;;;;;;;5031234;28;20116;-69
2021/08/26 09:55:49;;;;;;;27.90;16.58;;;;;;;;;;5031282;28;20105;-69
2021/08/26 09:58:15;;;;;;;23.80;15.15;;;;;;;;;;5031718;28;20022;-69
2021/08/26 10:00:41;;;;;;;23.65;14.32;;;;;;;;;;5031511;28;20400;-69
2021/08/26 12:41:38;;;;;;;17.35;12.23;;;;;;;;;;5025751;28;20080;-69
2021/08/26 12:44:03;;;;;;;21.90;13.35;;;;;;;;;;5028431;28;20465;-70
2021/08/26 12:46:32;;;;;;;19.95;11.60;;;;;;;;;;5028777;28;20033;-69
2021/08/26 12:49:08;;;;;;;21.13;12.53;;;;;;;;;;5028584;28;20163;-70
2021/08/26 12:51:34;;;;;;;19.00;12.02;;;;;;;;;;5028614;28;20033;-70
2021/08/26 12:54:05;;;;;;;17.88;12.05;;;;;;;;;;5028075;28;20033;-68
2021/08/26 12:56:41;;;;;;;18.17;11.65;;;;;;;;;;5028612;28;20032;-69
2021/08/26 12:59:07;;;;;;;16.30;11.30;;;;;;;;;;5028119;28;20025;-69
2021/08/26 13:01:33;;;;;;;17.38;10.23;;;;;;;;;;5028654;28;20468;-70
2021/08/26 13:03:59;;;;;;;16.17;10.32;;;;;;;;;;5028182;28;20049;-69
2021/08/26 13:06:44;;;;;;;15.45;10.43;;;;;;;;;;5028570;28;20018;-68
2021/08/26 13:09:11;;;;;;;12.90;9.38;;;;;;;;;;5028093;28;20033;-69
2021/08/26 13:11:45;;;;;;;15.68;9.23;;;;;;;;;;5028057;28;20021;-70
2021/08/26 13:14:10;;;;;;;12.88;8.75;;;;;;;;;;5027741;28;20033;-68
2021/08/26 13:16:35;;;;;;;13.93;9.30;;;;;;;;;;5028403;28;20025;-68
2021/08/26 13:19:01;;;;;;;13.73;9.27;;;;;;;;;;5029889;28;20296;-70
2021/08/26 13:21:26;;;;;;;12.25;8.75;;;;;;;;;;5033743;28;20104;-70
2021/08/26 13:23:51;;;;;;;14.15;9.98;;;;;;;;;;5032137;28;20028;-68
2021/08/26 13:26:16;;;;;;;14.07;9.68;;;;;;;;;;5032290;28;20025;-69
2021/08/26 13:28:42;;;;;;;11.93;8.82;;;;;;;;;;5032124;28;20178;-69
2021/08/26 13:31:08;;;;;;;15.00;9.60;;;;;;;;;;5031970;28;20384;-69
2021/08/26 13:33:33;;;;;;;14.07;9.77;;;;;;;;;;5032061;28;20026;-69
2021/08/26 13:35:58;;;;;;;13.32;9.50;;;;;;;;;;5031886;28;20020;-69
2021/08/26 13:38:23;;;;;;;13.77;9.02;;;;;;;;;;5031364;28;20476;-69
2021/08/26 13:40:48;;;;;;;13.20;8.73;;;;;;;;;;5031705;28;20126;-69
2021/08/26 13:43:14;;;;;;;11.88;8.70;;;;;;;;;;5031353;28;20453;-69
2021/08/26 13:45:39;;;;;;;12.23;8.18;;;;;;;;;;5031813;28;20025;-70
2021/08/26 13:48:04;;;;;;;11.65;8.38;;;;;;;;;;5031334;28;20049;-70
2021/08/26 13:50:33;;;;;;;12.48;8.00;;;;;;;;;;5031452;28;20033;-70
2021/08/26 13:52:58;;;;;;;12.00;8.52;;;;;;;;;;5031192;28;20052;-70
2021/08/26 13:55:26;;;;;;;12.55;8.23;;;;;;;;;;5031085;28;20075;-69
2021/08/26 13:57:52;;;;;;;11.73;8.40;;;;;;;;;;5031654;28;20104;-69
2021/08/26 14:00:17;;;;;;;13.65;8.80;;;;;;;;;;5030987;28;20022;-68
2021/08/26 14:02:42;;;;;;;11.40;8.03;;;;;;;;;;5031286;28;20021;-70
2021/08/26 14:05:08;;;;;;;13.38;9.23;;;;;;;;;;5030714;28;20352;-69
2021/08/26 14:07:33;;;;;;;10.02;7.15;;;;;;;;;;5030922;28;20022;-69
2021/08/26 14:09:58;;;;;;;8.88;6.55;;;;;;;;;;5030799;28;20025;-68
2021/08/26 14:12:23;;;;;;;9.32;6.55;;;;;;;;;;5030839;28;20404;-70
2021/08/26 14:14:48;;;;;;;8.83;6.50;;;;;;;;;;5031004;28;20083;-69
2021/08/26 14:17:14;;;;;;;8.63;6.27;;;;;;;;;;5031036;28;20256;-69
2021/08/26 14:19:39;;;;;;;9.15;6.43;;;;;;;;;;5031982;28;20347;-69
2021/08/26 14:22:04;;;;;;;9.57;5.88;;;;;;;;;;5031630;28;20018;-69
2021/08/26 14:24:29;;;;;;;8.55;5.82;;;;;;;;;;5030653;28;20018;-69
2021/08/26 14:26:55;;;;;;;8.07;6.37;;;;;;;;;;5031030;28;20015;-69
2021/08/26 14:29:20;;;;;;;8.10;5.55;;;;;;;;;;5030310;28;20382;-70
2021/08/26 14:31:46;;;;;;;9.05;5.82;;;;;;;;;;5029838;28;20021;-70
2021/08/26 14:34:11;;;;;;;9.10;5.60;;;;;;;;;;5030585;28;20051;-69
2021/08/26 14:36:36;;;;;;;7.22;5.15;;;;;;;;;;5030575;28;20256;-69
2021/08/26 14:39:01;;;;;;;6.63;4.90;;;;;;;;;;5030706;28;20037;-69
2021/08/26 14:41:27;;;;;;;7.10;5.03;;;;;;;;;;5030241;28;20052;-68
2021/08/26 14:43:52;;;;;;;6.78;4.82;;;;;;;;;;5030745;28;20495;-69
2021/08/26 14:46:17;;;;;;;6.90;5.30;;;;;;;;;;5030240;28;20442;-70
2021/08/26 14:48:42;;;;;;;8.20;4.72;;;;;;;;;;5030901;28;20267;-68
2021/08/26 14:51:08;;;;;;;6.97;4.68;;;;;;;;;;5029844;28;20029;-69
2021/08/26 14:53:33;;;;;;;6.07;3.92;;;;;;;;;;5028295;28;20041;-69
2021/08/26 14:55:58;;;;;;;7.47;5.32;;;;;;;;;;5021644;28;20433;-62
2021/08/26 14:58:23;;;;;;;5.93;4.35;;;;;;;;;;5020768;28;20035;-62
2021/08/26 15:00:48;;;;;;;7.97;5.23;;;;;;;;;;5028564;28;20021;-62
2021/08/26 15:03:14;;;;;;;8.65;6.07;;;;;;;;;;5031148;28;20322;-61
2021/08/26 15:05:39;;;;;;;8.05;5.75;;;;;;;;;;5029172;28;20025;-62
2021/08/26 15:08:04;;;;;;;7.35;5.00;;;;;;;;;;5031706;28;20095;-62
2021/08/26 15:10:30;;;;;;;7.00;4.97;;;;;;;;;;5027869;28;20484;-62
2021/08/26 15:12:55;;;;;;;7.93;5.72;;;;;;;;;;5027773;28;20042;-62
2021/08/26 15:15:20;;;;;;;8.70;5.75;;;;;;;;;;5032501;28;20027;-62
2021/08/26 15:17:46;;;;;;;8.73;6.13;;;;;;;;;;5022894;28;20707;-62
2021/08/26 15:20:12;;;;;;;9.48;5.93;;;;;;;;;;5027741;28;20032;-61
2021/08/26 15:22:38;;;;;;;13.10;5.78;;;;;;;;;;5029239;28;20067;-62
2021/08/26 15:25:03;;;;;;;8.47;5.97;;;;;;;;;;5032539;28;20013;-63
2021/08/26 15:27:29;;;;;;;8.68;6.00;;;;;;;;;;5034926;28;20275;-62
2021/08/26 15:29:54;;;;;;;8.93;6.38;;;;;;;;;;5030759;28;20025;-61
2021/08/26 15:32:22;;;;;;;10.07;6.18;;;;;;;;;;5028056;28;20029;-62
2021/08/26 15:34:48;;;;;;;8.70;5.93;;;;;;;;;;5026010;28;20045;-62
2021/08/26 15:37:13;;;;;;;10.07;6.60;;;;;;;;;;5031602;28;20096;-62
2021/08/26 15:39:38;;;;;;;9.32;6.03;;;;;;;;;;5025864;28;21135;-62
2021/08/26 15:42:04;;;;;;;11.13;6.47;;;;;;;;;;5022785;28;20078;-62
2021/08/26 15:44:29;;;;;;;12.43;6.80;;;;;;;;;;5028919;28;20473;-62
2021/08/26 15:46:55;;;;;;;11.52;6.20;;;;;;;;;;5030595;28;20060;-61
2021/08/26 15:49:22;;;;;;;8.43;5.55;;;;;;;;;;5023426;28;20117;-62
2021/08/26 15:51:48;;;;;;;8.48;5.47;;;;;;;;;;5025856;28;20048;-62
2021/08/26 15:54:19;;;;;;;7.43;4.88;;;;;;;;;;5027831;28;20041;-62
2021/08/26 15:57:10;;;;;;;7.93;5.43;;;;;;;;;;5028347;28;20028;-63
2021/08/26 16:02:31;;;;;;;10.82;6.43;;;;;;;;;;5038193;28;20035;-62
2021/08/26 16:04:56;;;;;;;8.95;5.05;;;;;;;;;;5040490;28;20047;-63
2021/08/26 16:07:21;;;;;;;9.60;5.95;;;;;;;;;;5025447;28;20037;-62
2021/08/26 16:09:47;;;;;;;7.93;5.47;;;;;;;;;;5044428;28;20103;-62
2021/08/26 16:12:12;;;;;;;8.57;5.57;;;;;;;;;;5045120;28;20082;-62
2021/08/26 16:14:39;;;;;;;8.63;5.83;;;;;;;;;;5045917;28;20299;-63
2021/08/26 16:17:06;;;;;;;8.55;5.72;;;;;;;;;;5042165;28;20329;-61
2021/08/26 16:19:31;;;;;;;8.52;5.68;;;;;;;;;;5034046;28;20302;-62
2021/08/26 16:21:56;;;;;;;9.98;6.45;;;;;;;;;;5032225;28;20021;-62
2021/08/26 16:24:21;;;;;;;8.73;6.05;;;;;;;;;;5044944;28;20033;-62
2021/08/26 16:26:47;;;;;;;8.68;6.72;;;;;;;;;;5045198;28;20040;-62
2021/08/26 16:29:13;;;;;;;9.07;6.88;;;;;;;;;;5037118;28;20032;-62
2021/08/26 16:31:39;;;;;;;8.32;5.18;;;;;;;;;;5041357;28;20025;-62
2021/08/26 16:34:04;;;;;;;7.30;4.90;;;;;;;;;;5045084;28;20033;-61
2021/08/26 16:36:29;;;;;;;8.63;5.53;;;;;;;;;;5043037;28;20269;-63
2021/08/26 16:39:00;;;;;;;7.30;5.05;;;;;;;;;;5032956;28;20045;-63
2021/08/26 16:41:26;;;;;;;8.27;5.20;;;;;;;;;;5022267;28;20080;-63
2021/08/26 16:43:51;;;;;;;7.28;4.50;;;;;;;;;;5026052;28;20030;-63
2021/08/26 16:46:16;;;;;;;6.50;4.80;;;;;;;;;;5023185;28;20029;-64
2021/08/26 16:48:41;;;;;;;7.60;5.45;;;;;;;;;;5029876;28;20578;-63
2021/08/26 16:51:07;;;;;;;6.43;3.90;;;;;;;;;;5022722;28;20033;-63
2021/08/26 16:53:32;;;;;;;8.35;4.50;;;;;;;;;;5022169;28;20056;-63
2021/08/26 16:55:57;;;;;;;7.83;4.50;;;;;;;;;;5023428;28;20489;-63
2021/08/26 16:58:22;;;;;;;6.97;4.32;;;;;;;;;;5031079;28;20280;-64
2021/08/26 17:00:47;;;;;;;8.37;4.70;;;;;;;;;;5024770;28;20473;-64
2021/08/26 17:03:12;;;;;;;6.87;4.47;;;;;;;;;;5028140;28;20283;-63
2021/08/26 17:05:37;;;;;;;6.57;4.15;;;;;;;;;;5021532;28;20355;-63
2021/08/26 17:08:03;;;;;;;5.88;3.95;;;;;;;;;;5027682;28;20026;-63
2021/08/26 17:10:28;;;;;;;7.40;4.50;;;;;;;;;;5028435;28;20473;-63
2021/08/26 17:12:53;;;;;;;10.70;4.63;;;;;;;;;;5031418;28;20029;-63